Time;durP1;ratioP1;P1;durP2;ratioP2;P2;SDS_P1;SDS_P2;PMS_P1;PMS_P2;Temp;Humidity;BMP_temperature;BMP_pressure;BME280_temperature;BME280_humidity;BME280_pressure;Samples;Min_cycle;Max_cycle;Signal;HPM_P1;HPM_P2
2022/09/22 00:02:01;;;;;;;7.00;4.00;;;8.20;99.90;;;;;;4836597;29;20048;-93
2022/09/22 00:04:27;;;;;;;5.85;4.03;;;8.20;99.90;;;;;;4847916;29;20038;-92
2022/09/22 00:06:54;;;;;;;6.65;3.95;;;8.10;99.90;;;;;;4824189;29;20034;-91
2022/09/22 00:09:20;;;;;;;6.82;4.03;;;8.10;99.90;;;;;;4861308;29;20089;-91
2022/09/22 00:11:49;;;;;;;9.65;3.55;;;8.00;99.90;;;;;;4845961;29;20061;-90
2022/09/22 00:14:21;;;;;;;7.70;3.72;;;8.10;99.90;;;;;;4874700;29;20087;-90
2022/09/22 00:16:49;;;;;;;2.90;2.30;;;8.00;99.90;;;;;;4868005;29;20049;-91
2022/09/22 00:19:20;;;;;;;6.00;3.13;;;7.90;99.90;;;;;;4856385;29;20046;-91
2022/09/22 00:21:47;;;;;;;5.07;3.60;;;7.80;99.90;;;;;;4868846;29;20113;-93
2022/09/22 00:24:13;;;;;;;12.00;2.60;;;7.80;99.90;;;;;;4871719;29;20052;-92
2022/09/22 00:26:39;;;;;;;2.75;1.90;;;7.70;99.90;;;;;;4830411;29;1182503;-92
2022/09/22 00:29:08;;;;;;;4.18;1.77;;;7.60;99.90;;;;;;4856596;29;20045;-91
2022/09/22 00:31:39;;;;;;;4.20;2.58;;;7.50;99.90;;;;;;4855972;29;20117;-90
2022/09/22 00:34:07;;;;;;;4.72;3.00;;;7.50;99.90;;;;;;4853869;29;20087;-90
2022/09/22 00:36:33;;;;;;;4.85;2.80;;;7.50;99.90;;;;;;4851864;29;20072;-91
2022/09/22 00:38:59;;;;;;;6.95;3.00;;;7.50;99.90;;;;;;4849089;29;20046;-90
2022/09/22 00:41:27;;;;;;;5.97;3.10;;;7.50;99.90;;;;;;4853999;29;20046;-91
2022/09/22 00:44:21;;;;;;;5.78;3.25;;;7.60;99.90;;;;;;4855464;29;20048;-92
2022/09/22 00:46:52;;;;;;;7.68;3.50;;;7.60;99.90;;;;;;4865940;29;20459;-92
2022/09/22 00:49:25;;;;;;;5.03;3.17;;;7.60;99.90;;;;;;4869087;29;20124;-91
2022/09/22 00:51:52;;;;;;;5.47;3.05;;;7.60;99.90;;;;;;4854258;29;20033;-92
2022/09/22 00:54:18;;;;;;;6.47;3.08;;;7.70;99.90;;;;;;4838830;29;20101;-91
2022/09/22 00:57:04;;;;;;;6.32;3.47;;;7.60;99.90;;;;;;4845951;29;20045;-91
2022/09/22 00:59:29;;;;;;;6.10;3.40;;;7.60;99.90;;;;;;4855255;29;20053;-91
2022/09/22 01:01:55;;;;;;;5.07;3.13;;;7.90;99.90;;;;;;4848830;29;20146;-91
2022/09/22 01:04:22;;;;;;;7.10;2.92;;;7.60;99.90;;;;;;4862184;29;20033;-92
2022/09/22 01:06:48;;;;;;;6.80;3.58;;;7.60;99.90;;;;;;4845496;29;20046;-91
2022/09/22 01:09:15;;;;;;;5.47;3.05;;;7.70;99.90;;;;;;4848187;29;20073;-93
2022/09/22 01:11:42;;;;;;;5.03;3.08;;;7.60;99.90;;;;;;4860990;29;20049;-91
2022/09/22 01:14:16;;;;;;;6.80;3.40;;;7.60;99.90;;;;;;4848249;29;20066;-91
2022/09/22 01:16:51;;;;;;;5.70;3.03;;;7.60;99.90;;;;;;4865688;29;20040;-91
2022/09/22 01:19:32;;;;;;;5.68;3.35;;;7.50;99.90;;;;;;4844813;29;20041;-91
2022/09/22 01:22:19;;;;;;;4.63;2.92;;;7.50;99.90;;;;;;4868764;29;20050;-92
2022/09/22 01:25:08;;;;;;;9.02;3.53;;;7.50;99.90;;;;;;4856124;29;20557;-91
2022/09/22 01:28:13;;;;;;;9.43;4.78;;;7.50;99.90;;;;;;4854091;29;20094;-92
2022/09/22 01:31:03;;;;;;;6.18;3.63;;;7.50;99.90;;;;;;4882057;29;20104;-91
2022/09/22 01:33:48;;;;;;;9.27;3.83;;;7.50;99.90;;;;;;4853711;29;20046;-92
2022/09/22 01:36:22;;;;;;;8.93;3.80;;;7.70;99.90;;;;;;4842880;29;20042;-92
2022/09/22 01:39:00;;;;;;;6.30;3.40;;;7.40;99.90;;;;;;4863464;29;20103;-92
2022/09/22 01:41:59;;;;;;;7.35;3.38;;;7.40;99.90;;;;;;4854594;29;20057;-91
2022/09/22 01:44:48;;;;;;;9.45;3.60;;;7.50;99.90;;;;;;4879557;29;20042;-91
2022/09/22 01:47:18;;;;;;;7.55;4.18;;;7.50;99.90;;;;;;4857099;29;20128;-92
2022/09/22 01:49:55;;;;;;;8.10;3.80;;;7.40;99.90;;;;;;4854869;29;20133;-92
2022/09/22 01:52:25;;;;;;;5.53;3.72;;;7.40;99.90;;;;;;4859900;29;20041;-91
2022/09/22 01:55:20;;;;;;;6.35;3.58;;;7.40;99.90;;;;;;4862525;29;20109;-92
2022/09/22 01:58:04;;;;;;;6.07;3.15;;;7.40;99.90;;;;;;4854664;29;20052;-92
2022/09/22 02:00:31;;;;;;;7.32;3.40;;;7.30;99.90;;;;;;4881191;29;20058;-92
2022/09/22 02:03:38;;;;;;;7.32;3.70;;;7.30;99.90;;;;;;4842299;29;20061;-90
2022/09/22 02:06:13;;;;;;;8.32;3.63;;;7.30;99.90;;;;;;4863743;29;20085;-91
2022/09/22 02:08:51;;;;;;;4.85;3.63;;;7.20;99.90;;;;;;4851622;29;20597;-93
2022/09/22 02:11:17;;;;;;;8.13;3.40;;;7.20;99.90;;;;;;4854304;29;20056;-91
2022/09/22 02:13:43;;;;;;;5.80;3.60;;;7.20;99.90;;;;;;4864130;29;20066;-92
2022/09/22 02:16:13;;;;;;;5.97;3.60;;;7.20;99.90;;;;;;4867212;29;20045;-91
2022/09/22 02:18:45;;;;;;;7.22;3.65;;;7.20;99.90;;;;;;4851068;29;20050;-91
2022/09/22 02:21:12;;;;;;;4.78;3.10;;;7.20;99.90;;;;;;4864470;29;20037;-91
2022/09/22 02:23:38;;;;;;;6.65;3.50;;;7.10;99.90;;;;;;4882281;29;20078;-92
2022/09/22 02:26:05;;;;;;;6.28;3.80;;;7.10;99.90;;;;;;4856461;29;20045;-89
2022/09/22 02:28:34;;;;;;;5.38;3.45;;;7.40;99.90;;;;;;4862389;29;20054;-92
2022/09/22 02:31:02;;;;;;;8.70;4.30;;;7.10;99.90;;;;;;4851090;29;20117;-90
2022/09/22 02:33:32;;;;;;;7.60;4.07;;;7.00;99.90;;;;;;4853148;29;20042;-92
2022/09/22 02:36:29;;;;;;;6.47;3.47;;;7.00;99.90;;;;;;4853517;29;20069;-91
2022/09/22 02:39:28;;;;;;;7.35;3.80;;;7.00;99.90;;;;;;4851221;29;20049;-91
2022/09/22 02:42:32;;;;;;;6.25;4.05;;;7.00;99.90;;;;;;4863560;29;20109;-92
2022/09/22 02:45:12;;;;;;;7.35;3.88;;;7.00;99.90;;;;;;4824583;29;20106;-92
2022/09/22 02:47:56;;;;;;;7.47;3.83;;;7.00;99.90;;;;;;4861932;29;20041;-92
2022/09/22 02:50:24;;;;;;;11.75;4.65;;;7.00;99.90;;;;;;4853086;29;20056;-91
2022/09/22 02:53:00;;;;;;;6.68;4.50;;;6.90;99.90;;;;;;4852550;29;20132;-92
2022/09/22 02:55:25;;;;;;;9.32;5.13;;;6.90;99.90;;;;;;4851170;29;20038;-91
2022/09/22 02:57:51;;;;;;;8.73;5.60;;;6.90;99.90;;;;;;4842642;29;20457;-92
2022/09/22 03:00:17;;;;;;;11.02;5.63;;;6.90;99.90;;;;;;4840776;29;20562;-91
2022/09/22 03:02:42;;;;;;;7.05;5.38;;;6.90;99.90;;;;;;4867503;29;20037;-91
2022/09/22 03:05:08;;;;;;;7.07;5.47;;;6.90;99.90;;;;;;4845669;29;20049;-91
2022/09/22 03:07:37;;;;;;;8.65;5.50;;;6.90;99.90;;;;;;4856327;29;20056;-90
2022/09/22 03:10:03;;;;;;;8.65;5.50;;;6.80;99.90;;;;;;4840511;29;20097;-92
2022/09/22 03:12:29;;;;;;;7.75;5.47;;;6.90;99.90;;;;;;4848524;29;20082;-93
2022/09/22 03:14:54;;;;;;;10.15;6.00;;;6.80;99.90;;;;;;4867915;29;20073;-92
2022/09/22 03:17:20;;;;;;;10.00;5.50;;;6.80;99.90;;;;;;4847151;29;20042;-91
2022/09/22 03:19:46;;;;;;;11.70;5.80;;;6.80;99.90;;;;;;4821352;29;20089;-93
2022/09/22 03:22:12;;;;;;;12.27;5.95;;;6.80;99.90;;;;;;4840079;29;20045;-91
2022/09/22 03:24:37;;;;;;;11.40;5.13;;;6.80;99.90;;;;;;4835390;29;20085;-92
2022/09/22 03:27:03;;;;;;;9.68;5.40;;;6.80;99.90;;;;;;4843580;29;20060;-91
2022/09/22 03:29:29;;;;;;;8.13;5.10;;;6.70;99.90;;;;;;4841945;29;20092;-93
2022/09/22 03:31:54;;;;;;;7.85;5.15;;;6.80;99.90;;;;;;4859301;29;20087;-92
2022/09/22 03:34:20;;;;;;;8.40;5.45;;;6.70;99.90;;;;;;4841042;29;20492;-92
2022/09/22 03:36:46;;;;;;;6.85;4.65;;;6.70;99.90;;;;;;4834768;29;20046;-94
2022/09/22 03:39:11;;;;;;;7.65;4.20;;;6.70;99.90;;;;;;4848741;29;20045;-92
2022/09/22 03:41:37;;;;;;;9.25;4.70;;;6.70;99.90;;;;;;4844800;29;20054;-93
2022/09/22 03:44:04;;;;;;;8.57;4.88;;;6.70;99.90;;;;;;4839667;29;20045;-91
2022/09/22 03:46:30;;;;;;;10.18;5.15;;;6.70;99.90;;;;;;4836789;29;20053;-92
2022/09/22 03:48:56;;;;;;;9.70;4.35;;;6.70;99.90;;;;;;4852997;29;20045;-93
2022/09/22 03:51:22;;;;;;;12.23;4.32;;;6.70;99.90;;;;;;4837086;29;20077;-93
2022/09/22 03:53:48;;;;;;;7.20;4.15;;;6.60;99.90;;;;;;4840629;29;20054;-92
2022/09/22 03:56:15;;;;;;;7.35;4.38;;;6.60;99.90;;;;;;4869202;29;20051;-92
2022/09/22 03:58:41;;;;;;;7.30;4.30;;;6.60;99.90;;;;;;4856482;29;20081;-92
2022/09/22 04:01:09;;;;;;;11.00;4.45;;;6.60;99.90;;;;;;4853569;29;20045;-93
2022/09/22 04:03:36;;;;;;;8.75;4.50;;;6.60;99.90;;;;;;4837819;29;20053;-91
2022/09/22 04:06:02;;;;;;;9.05;4.75;;;6.60;99.90;;;;;;4853125;29;20149;-91
2022/09/22 04:08:28;;;;;;;9.30;4.57;;;6.60;99.90;;;;;;4849832;29;20034;-91
2022/09/22 04:10:56;;;;;;;9.65;4.75;;;6.60;99.90;;;;;;4827411;29;20085;-90
2022/09/22 04:13:22;;;;;;;8.98;4.65;;;6.60;99.90;;;;;;4847031;29;20105;-92
2022/09/22 04:15:48;;;;;;;8.63;4.20;;;6.50;99.90;;;;;;4870812;29;20060;-90
2022/09/22 04:18:14;;;;;;;8.63;4.18;;;6.60;99.90;;;;;;4854376;29;20514;-91
2022/09/22 04:20:42;;;;;;;8.82;3.67;;;6.70;99.90;;;;;;4844345;29;20065;-89
2022/09/22 04:23:09;;;;;;;6.95;3.72;;;6.50;99.90;;;;;;4840177;29;20046;-91
2022/09/22 04:25:35;;;;;;;5.80;3.90;;;6.50;99.90;;;;;;4835424;29;20034;-91
2022/09/22 04:28:02;;;;;;;6.13;3.63;;;6.50;99.90;;;;;;4852146;29;20061;-91
2022/09/22 04:30:27;;;;;;;6.00;3.55;;;6.50;99.90;;;;;;4868686;29;20049;-92
2022/09/22 04:32:53;;;;;;;5.63;3.30;;;6.50;99.90;;;;;;4855848;29;20133;-91
2022/09/22 04:35:19;;;;;;;9.23;4.07;;;6.40;99.90;;;;;;4854017;29;20042;-92
2022/09/22 04:37:44;;;;;;;5.97;4.22;;;6.40;99.90;;;;;;4863716;29;20041;-91
2022/09/22 04:40:11;;;;;;;7.45;3.65;;;6.40;99.90;;;;;;4878308;29;20050;-91
2022/09/22 04:42:37;;;;;;;7.28;3.65;;;6.40;99.90;;;;;;4855984;29;20042;-90
2022/09/22 04:45:05;;;;;;;6.57;3.80;;;6.40;99.90;;;;;;4870234;29;20101;-89
2022/09/22 04:47:32;;;;;;;4.57;3.38;;;6.30;99.90;;;;;;4852705;29;20056;-90
2022/09/22 04:49:58;;;;;;;6.30;3.30;;;6.40;99.90;;;;;;4891080;29;20052;-90
2022/09/22 04:52:25;;;;;;;7.00;3.70;;;6.30;99.90;;;;;;4858826;29;20042;-91
2022/09/22 04:54:50;;;;;;;8.43;3.67;;;6.30;99.90;;;;;;4877509;29;20046;-92
2022/09/22 04:57:16;;;;;;;8.15;3.83;;;6.40;99.90;;;;;;4857627;29;20069;-90
2022/09/22 04:59:42;;;;;;;5.05;3.13;;;6.30;99.90;;;;;;4858540;29;20045;-91
2022/09/22 05:02:08;;;;;;;8.95;3.80;;;6.30;99.90;;;;;;4860909;29;20062;-91
2022/09/22 05:04:34;;;;;;;6.20;4.13;;;6.30;99.90;;;;;;4845251;29;20041;-89
2022/09/22 05:07:00;;;;;;;7.57;3.50;;;6.30;99.90;;;;;;4880636;29;20057;-89
2022/09/22 05:09:27;;;;;;;6.72;3.67;;;6.20;99.90;;;;;;4863012;29;20045;-90
2022/09/22 05:11:53;;;;;;;9.75;4.10;;;6.20;99.90;;;;;;4879712;29;20081;-92
2022/09/22 05:14:19;;;;;;;7.35;4.05;;;6.20;99.90;;;;;;4875580;29;20057;-90
2022/09/22 05:16:44;;;;;;;6.85;3.90;;;6.20;99.90;;;;;;4860639;29;20038;-91
2022/09/22 05:19:10;;;;;;;8.38;4.40;;;6.30;99.90;;;;;;4867493;29;20025;-91
2022/09/22 05:21:36;;;;;;;8.07;4.22;;;6.10;99.90;;;;;;4864085;29;20071;-90
2022/09/22 05:24:03;;;;;;;7.15;3.75;;;6.10;99.90;;;;;;4897429;29;20040;-91
2022/09/22 05:26:29;;;;;;;7.93;4.65;;;6.10;99.90;;;;;;4861974;29;20044;-91
2022/09/22 05:28:56;;;;;;;8.95;4.32;;;6.10;99.90;;;;;;4853537;29;20060;-90
2022/09/22 05:31:22;;;;;;;6.40;4.30;;;6.30;99.90;;;;;;4895894;29;20029;-90
2022/09/22 05:33:48;;;;;;;8.48;4.10;;;6.10;99.90;;;;;;4864770;29;20037;-91
2022/09/22 05:36:14;;;;;;;8.35;3.78;;;6.30;99.90;;;;;;4869557;29;20045;-92
2022/09/22 05:38:40;;;;;;;7.53;4.25;;;6.10;99.90;;;;;;4886864;29;20102;-92
2022/09/22 05:41:06;;;;;;;7.28;4.38;;;6.30;99.90;;;;;;4847588;29;20066;-90
2022/09/22 05:43:31;;;;;;;10.60;5.10;;;6.10;99.90;;;;;;4874393;29;20101;-91
2022/09/22 05:45:57;;;;;;;10.13;5.03;;;6.10;99.90;;;;;;4848932;29;20038;-90
2022/09/22 05:48:23;;;;;;;7.28;4.85;;;6.20;99.90;;;;;;4837886;29;20049;-91
2022/09/22 05:50:48;;;;;;;8.35;5.10;;;6.10;99.90;;;;;;4854022;29;20060;-92
2022/09/22 05:53:15;;;;;;;9.90;5.35;;;6.10;99.90;;;;;;4839818;29;20056;-90
2022/09/22 05:55:44;;;;;;;7.55;5.15;;;6.10;99.90;;;;;;4837761;29;20113;-90
2022/09/22 05:58:10;;;;;;;10.88;6.30;;;6.10;99.90;;;;;;4853905;29;20046;-92
2022/09/22 06:00:38;;;;;;;12.30;6.20;;;6.20;99.90;;;;;;4821749;29;20074;-95
2022/09/22 06:03:04;;;;;;;7.95;5.80;;;6.20;99.90;;;;;;4849868;29;20435;-92
2022/09/22 06:05:30;;;;;;;12.02;6.82;;;6.20;99.90;;;;;;4835810;29;20041;-95
2022/09/22 06:07:59;;;;;;;12.20;6.25;;;6.30;99.90;;;;;;4852909;29;20050;-88
2022/09/22 06:10:26;;;;;;;12.20;6.50;;;6.30;99.90;;;;;;4843189;29;20113;-89
2022/09/22 06:12:57;;;;;;;9.27;5.65;;;6.40;99.90;;;;;;4829211;29;20071;-89
2022/09/22 06:15:23;;;;;;;10.90;5.43;;;6.40;99.90;;;;;;4827102;29;20078;-88
2022/09/22 06:17:51;;;;;;;11.07;5.43;;;6.40;99.90;;;;;;4844238;29;20049;-95
2022/09/22 06:20:20;;;;;;;10.23;6.40;;;6.40;99.90;;;;;;4861573;29;20053;-89
2022/09/22 06:22:46;;;;;;;13.18;6.60;;;6.50;99.90;;;;;;4856753;29;20081;-87
2022/09/22 06:25:12;;;;;;;10.45;6.20;;;6.50;99.90;;;;;;4843421;29;20080;-89
2022/09/22 06:27:38;;;;;;;7.15;5.70;;;6.50;99.90;;;;;;4857139;29;20072;-89
2022/09/22 06:30:05;;;;;;;9.77;6.32;;;6.60;99.90;;;;;;4842630;29;20121;-89
2022/09/22 06:32:32;;;;;;;9.45;6.05;;;6.60;99.90;;;;;;4827273;29;20056;-88
2022/09/22 06:35:01;;;;;;;8.90;6.90;;;6.70;99.90;;;;;;4872425;29;20071;-89
2022/09/22 06:37:27;;;;;;;8.93;6.72;;;6.70;99.90;;;;;;4828144;29;20040;-89
2022/09/22 06:39:53;;;;;;;10.43;6.10;;;6.80;99.90;;;;;;4826052;29;20034;-89
2022/09/22 06:42:19;;;;;;;8.02;7.18;;;6.80;99.90;;;;;;4858330;29;20062;-89
2022/09/22 06:44:45;;;;;;;8.48;7.55;;;6.80;99.90;;;;;;4811095;29;20377;-88
2022/09/22 06:47:14;;;;;;;10.30;8.70;;;6.80;99.90;;;;;;4871683;29;20125;-88
2022/09/22 06:49:41;;;;;;;13.02;9.05;;;6.90;99.90;;;;;;4843277;29;20073;-87
2022/09/22 06:52:12;;;;;;;11.90;8.18;;;7.00;99.90;;;;;;4840753;29;20065;-88
2022/09/22 06:54:41;;;;;;;10.90;8.60;;;7.00;99.90;;;;;;4871886;29;20073;-88
2022/09/22 06:57:10;;;;;;;15.25;8.85;;;7.10;99.90;;;;;;4842831;29;20168;-88
2022/09/22 06:59:36;;;;;;;13.43;8.68;;;7.20;99.90;;;;;;4842817;29;20565;-88
2022/09/22 07:02:06;;;;;;;12.75;10.10;;;7.30;99.90;;;;;;4839393;29;20061;-87
2022/09/22 07:04:35;;;;;;;11.75;8.90;;;7.30;99.90;;;;;;4826894;29;20053;-88
2022/09/22 07:07:04;;;;;;;10.57;8.48;;;7.30;99.90;;;;;;4834522;29;20056;-86
2022/09/22 07:09:30;;;;;;;11.05;9.10;;;7.40;99.90;;;;;;4825252;29;20701;-87
2022/09/22 07:11:56;;;;;;;14.55;9.25;;;7.40;99.90;;;;;;4840732;29;20132;-87
2022/09/22 07:14:24;;;;;;;12.18;9.45;;;7.50;99.90;;;;;;4839923;29;20057;-88
2022/09/22 07:16:51;;;;;;;14.45;9.50;;;7.50;99.90;;;;;;4849350;29;20060;-88
2022/09/22 07:19:17;;;;;;;12.13;9.20;;;7.60;99.90;;;;;;4855395;29;20046;-88
2022/09/22 07:21:43;;;;;;;14.23;9.02;;;7.70;99.90;;;;;;4856190;29;20075;-87
2022/09/22 07:24:09;;;;;;;12.88;9.90;;;7.70;99.90;;;;;;4811900;29;20057;-88
2022/09/22 07:26:37;;;;;;;17.58;10.40;;;7.80;99.90;;;;;;4824999;29;20054;-88
2022/09/22 07:29:06;;;;;;;11.40;9.52;;;7.90;99.90;;;;;;4857869;29;20123;-88
2022/09/22 07:31:33;;;;;;;12.80;9.95;;;8.30;99.90;;;;;;4853666;29;20053;-88
2022/09/22 07:33:59;;;;;;;13.15;11.25;;;8.00;99.90;;;;;;4871517;29;20064;-88
2022/09/22 07:36:27;;;;;;;13.48;10.38;;;8.10;99.90;;;;;;4809171;29;20053;-87
2022/09/22 07:38:56;;;;;;;16.50;11.20;;;8.20;99.90;;;;;;4841255;29;20069;-88
2022/09/22 07:41:29;;;;;;;15.30;11.18;;;8.30;99.90;;;;;;4855620;29;20045;-87
2022/09/22 07:45:11;;;;;;;11.75;10.27;;;8.30;99.90;;;;;;4854859;29;20049;-88
2022/09/22 07:46:45;;;;;;;14.77;10.27;;;8.40;99.90;;;;;;4842819;29;20046;-87
2022/09/22 07:49:13;;;;;;;14.75;11.10;;;8.50;99.90;;;;;;4869634;29;20057;-89
2022/09/22 07:51:40;;;;;;;11.48;9.52;;;8.60;99.90;;;;;;4840686;29;20046;-87
2022/09/22 07:54:09;;;;;;;14.93;9.68;;;8.70;99.90;;;;;;4846092;29;20053;-89
2022/09/22 07:56:40;;;;;;;13.13;9.43;;;8.80;99.90;;;;;;4855376;29;20059;-89
2022/09/22 07:59:09;;;;;;;12.65;9.88;;;8.90;99.90;;;;;;4860141;29;20098;-90
2022/09/22 08:01:36;;;;;;;14.38;9.02;;;9.00;99.90;;;;;;4866956;29;20037;-89
2022/09/22 08:04:01;;;;;;;12.20;9.57;;;9.10;99.90;;;;;;4850901;29;20055;-89
2022/09/22 08:06:27;;;;;;;13.70;9.10;;;9.20;99.90;;;;;;4850099;29;20037;-90
2022/09/22 08:08:55;;;;;;;13.05;9.20;;;9.20;99.90;;;;;;4825219;29;20049;-89
2022/09/22 08:11:24;;;;;;;11.93;8.20;;;9.40;99.90;;;;;;4852809;29;20049;-89
2022/09/22 08:13:52;;;;;;;12.25;7.50;;;9.50;99.90;;;;;;4854050;29;20054;-89
2022/09/22 08:16:21;;;;;;;11.02;7.85;;;9.60;99.90;;;;;;4824318;29;20462;-89
2022/09/22 08:18:54;;;;;;;13.05;7.60;;;9.70;99.90;;;;;;4853358;29;20064;-89
2022/09/22 08:21:34;;;;;;;10.35;6.68;;;9.80;99.90;;;;;;4871495;29;20065;-89
2022/09/22 08:24:00;;;;;;;9.63;6.10;;;10.00;99.90;;;;;;4854675;29;20081;-89
2022/09/22 08:26:26;;;;;;;13.82;7.15;;;10.10;99.90;;;;;;4854586;29;20078;-90
2022/09/22 08:28:53;;;;;;;10.20;6.53;;;10.20;99.90;;;;;;4825478;29;21017;-89
2022/09/22 08:31:20;;;;;;;9.07;6.07;;;10.30;99.90;;;;;;4853315;29;20042;-89
2022/09/22 08:33:47;;;;;;;13.77;7.00;;;10.40;99.90;;;;;;4855777;29;20060;-89
2022/09/22 08:36:15;;;;;;;8.82;5.60;;;10.50;99.90;;;;;;4838139;29;20053;-89
2022/09/22 08:38:41;;;;;;;11.52;6.00;;;10.70;99.90;;;;;;4828396;29;20046;-89
2022/09/22 08:41:23;;;;;;;13.05;5.72;;;10.70;99.90;;;;;;4841935;29;20934;-88
2022/09/22 08:43:57;;;;;;;9.38;5.35;;;10.80;99.90;;;;;;4842141;29;20562;-90
2022/09/22 08:46:30;;;;;;;9.27;4.80;;;10.90;99.90;;;;;;4874049;29;20053;-90
2022/09/22 08:51:51;;;;;;;9.70;4.97;;;11.10;99.90;;;;;;4859393;29;19932;-90
2022/09/22 08:54:26;;;;;;;7.15;4.72;;;11.20;99.90;;;;;;4857910;29;20049;-89
2022/09/22 08:57:10;;;;;;;10.52;5.15;;;11.30;99.90;;;;;;4857790;29;20053;-89
2022/09/22 08:59:50;;;;;;;9.38;5.07;;;11.40;99.90;;;;;;4842833;29;20053;-89
2022/09/22 09:02:43;;;;;;;9.43;5.57;;;11.50;99.90;;;;;;4855171;29;20041;-89
2022/09/22 09:05:38;;;;;;;7.55;4.90;;;11.60;99.90;;;;;;4845335;29;20045;-89
2022/09/22 09:08:41;;;;;;;8.73;4.55;;;11.70;99.90;;;;;;4873042;29;20053;-90
2022/09/22 09:11:32;;;;;;;10.27;5.57;;;11.90;99.90;;;;;;4882441;29;20106;-89
2022/09/22 09:14:37;;;;;;;7.63;4.07;;;12.00;99.90;;;;;;4873425;29;20057;-89
2022/09/22 09:17:39;;;;;;;7.65;4.35;;;12.10;99.90;;;;;;4842277;29;20057;-88
2022/09/22 09:20:17;;;;;;;9.27;3.80;;;12.30;99.90;;;;;;4807526;29;20042;-89
2022/09/22 09:22:54;;;;;;;9.85;4.50;;;12.40;99.90;;;;;;4851843;29;20620;-89
2022/09/22 09:25:38;;;;;;;10.48;4.50;;;12.40;99.90;;;;;;4873579;29;20045;-90
2022/09/22 09:28:17;;;;;;;10.45;4.00;;;12.60;99.90;;;;;;4856170;29;20057;-89
2022/09/22 09:30:45;;;;;;;9.98;3.85;;;12.70;99.90;;;;;;4857226;29;20053;-89
2022/09/22 09:33:27;;;;;;;7.65;4.03;;;12.80;99.90;;;;;;4857760;29;20050;-89
2022/09/22 09:35:53;;;;;;;9.95;3.85;;;12.90;99.90;;;;;;4855919;29;20100;-90
2022/09/22 09:38:28;;;;;;;8.60;3.85;;;13.00;99.90;;;;;;4827550;29;20672;-89
2022/09/22 09:41:20;;;;;;;6.95;3.00;;;13.20;99.90;;;;;;4856079;29;20045;-89
2022/09/22 09:43:46;;;;;;;8.75;3.53;;;13.30;99.90;;;;;;4841475;29;20057;-89
2022/09/22 09:46:23;;;;;;;8.68;3.28;;;13.40;99.90;;;;;;4841732;29;20101;-89
2022/09/22 09:49:06;;;;;;;5.38;3.10;;;13.50;99.90;;;;;;4844729;29;20077;-91
2022/09/22 09:51:38;;;;;;;5.78;2.80;;;13.60;99.90;;;;;;4857429;29;20878;-90
2022/09/22 09:54:08;;;;;;;6.68;2.88;;;13.70;99.90;;;;;;4855505;29;20046;-90
2022/09/22 09:56:56;;;;;;;8.30;2.90;;;13.80;99.90;;;;;;4856968;29;20057;-90
2022/09/22 10:13:57;;;;;;;7.10;2.83;;;14.00;99.90;;;;;;6151187;22;1356933;-88
2022/09/22 10:16:25;;;;;;;7.60;3.22;;;14.60;99.90;;;;;;6211708;23;20029;-88
2022/09/22 10:19:18;;;;;;;7.50;2.85;;;14.70;99.90;;;;;;6153726;23;20100;-87
2022/09/22 10:21:44;;;;;;;6.05;2.40;;;14.90;99.90;;;;;;6169629;23;20550;-89
2022/09/22 10:24:30;;;;;;;8.32;3.50;;;15.00;99.90;;;;;;6168342;23;20021;-88
2022/09/22 10:26:56;;;;;;;12.15;3.08;;;15.00;99.90;;;;;;6169605;23;20017;-88
2022/09/22 10:29:23;;;;;;;6.88;2.78;;;15.10;99.90;;;;;;6201502;23;20021;-89
2022/09/22 10:32:14;;;;;;;7.15;3.20;;;15.20;99.90;;;;;;6175206;23;20073;-88
2022/09/22 10:34:49;;;;;;;7.05;2.97;;;15.30;99.90;;;;;;6177511;23;20031;-87
2022/09/22 10:37:24;;;;;;;5.95;3.03;;;15.40;99.90;;;;;;6175378;23;20025;-88
2022/09/22 10:39:52;;;;;;;9.48;3.20;;;15.50;99.90;;;;;;6200810;23;20016;-89
2022/09/22 10:42:39;;;;;;;5.75;3.20;;;15.50;99.20;;;;;;6200073;23;20724;-87
2022/09/22 10:45:19;;;;;;;7.25;3.28;;;15.60;97.40;;;;;;6175730;23;20059;-86
2022/09/22 10:48:34;;;;;;;6.15;3.00;;;15.60;97.60;;;;;;6200988;23;20024;-85
2022/09/22 10:51:29;;;;;;;7.85;3.00;;;15.70;98.70;;;;;;6115107;23;20025;-87
2022/09/22 10:54:09;;;;;;;5.95;2.60;;;15.80;97.30;;;;;;6083361;23;20527;-87
2022/09/22 10:56:40;;;;;;;6.15;2.65;;;15.90;98.20;;;;;;6177396;23;20132;-87
2022/09/22 10:59:18;;;;;;;6.75;2.80;;;16.00;98.50;;;;;;6168637;23;20039;-88
2022/09/22 11:02:01;;;;;;;7.80;3.17;;;16.10;96.70;;;;;;6167473;23;20021;-87
2022/09/22 11:04:42;;;;;;;8.25;2.85;;;16.20;96.70;;;;;;6168256;23;20021;-88
2022/09/22 11:13:50;;;;;;;7.82;2.70;;;16.30;97.10;;;;;;6189463;23;20078;-87
2022/09/22 11:16:34;;;;;;;8.15;2.88;;;16.60;92.40;;;;;;6183638;23;20053;-87
2022/09/22 11:19:00;;;;;;;;;;;16.70;93.50;;;;;;6187239;23;20025;-88
2022/09/22 11:21:57;;;;;;;8.85;2.90;;;16.90;94.50;;;;;;6175935;23;19922;-87
2022/09/22 11:24:44;;;;;;;5.60;2.63;;;17.00;95.50;;;;;;6177408;23;20069;-88
2022/09/22 11:27:32;;;;;;;7.18;2.95;;;17.20;94.60;;;;;;6162883;23;20028;-88
2022/09/22 11:30:13;;;;;;;5.82;3.20;;;17.30;95.20;;;;;;6186070;23;20414;-86
2022/09/22 11:33:12;;;;;;;7.30;3.38;;;17.40;94.90;;;;;;6184865;23;20021;-87
2022/09/22 11:36:22;;;;;;;9.35;3.65;;;17.60;93.30;;;;;;6116288;23;20060;-88
2022/09/22 11:39:19;;;;;;;7.22;3.85;;;17.60;93.60;;;;;;6138640;23;20052;-87
2022/09/22 11:41:48;;;;;;;7.85;4.05;;;17.50;92.80;;;;;;6159217;23;20040;-88
2022/09/22 11:44:56;;;;;;;9.15;4.18;;;17.40;92.70;;;;;;6161709;23;20032;-87
2022/09/22 11:48:01;;;;;;;8.25;3.72;;;17.50;92.50;;;;;;6159494;23;20017;-87
2022/09/22 11:50:38;;;;;;;9.68;4.38;;;17.40;91.30;;;;;;6146884;23;20017;-87
2022/09/22 11:53:12;;;;;;;10.45;3.95;;;17.10;91.40;;;;;;6185487;23;20024;-88
2022/09/22 11:55:38;;;;;;;8.45;3.70;;;16.90;91.90;;;;;;6185222;23;20399;-87
2022/09/22 11:58:21;;;;;;;8.55;4.35;;;16.80;92.50;;;;;;6160746;23;20024;-87
2022/09/22 12:00:54;;;;;;;8.13;3.70;;;16.90;92.10;;;;;;6159472;23;20017;-87
2022/09/22 12:03:27;;;;;;;8.10;3.20;;;17.00;90.00;;;;;;6159468;23;20029;-88
2022/09/22 12:06:02;;;;;;;7.22;2.95;;;17.20;92.80;;;;;;6161072;23;20072;-87
2022/09/22 12:08:34;;;;;;;5.60;2.97;;;17.40;91.50;;;;;;6160539;23;20409;-87
2022/09/22 12:11:00;;;;;;;9.85;3.70;;;17.60;91.70;;;;;;6184240;23;20021;-87
2022/09/22 12:13:29;;;;;;;7.10;3.25;;;17.70;91.20;;;;;;6136201;23;20391;-87
2022/09/22 12:16:28;;;;;;;9.70;3.00;;;17.70;90.90;;;;;;6182671;23;20021;-88
2022/09/22 12:19:06;;;;;;;6.47;3.45;;;17.60;89.50;;;;;;6174598;23;20839;-87
2022/09/22 12:21:39;;;;;;;8.95;3.53;;;17.60;90.20;;;;;;6184176;23;20021;-87
2022/09/22 12:24:10;;;;;;;8.25;3.33;;;17.60;90.50;;;;;;6160009;23;20079;-87
2022/09/22 12:26:41;;;;;;;11.48;3.20;;;17.70;90.40;;;;;;6184402;23;20463;-87
2022/09/22 12:29:10;;;;;;;8.15;3.00;;;17.90;90.70;;;;;;6168541;23;20037;-87
2022/09/22 12:31:40;;;;;;;5.40;2.72;;;18.00;90.00;;;;;;6202109;23;20021;-89
2022/09/22 12:34:19;;;;;;;6.28;2.90;;;18.20;87.90;;;;;;6195067;23;20351;-88
2022/09/22 12:36:47;;;;;;;8.63;2.88;;;18.30;86.70;;;;;;6159756;23;20021;-89
2022/09/22 12:39:17;;;;;;;6.50;3.10;;;18.40;87.70;;;;;;6160436;23;20055;-88
2022/09/22 12:42:04;;;;;;;7.45;3.13;;;18.50;85.70;;;;;;6183783;23;20061;-89
2022/09/22 12:44:55;;;;;;;5.97;2.40;;;18.50;85.40;;;;;;6161741;23;20020;-88
2022/09/22 12:47:34;;;;;;;6.97;3.42;;;18.40;87.00;;;;;;6186484;23;20021;-88
2022/09/22 12:50:32;;;;;;;6.00;2.70;;;18.20;84.50;;;;;;6159839;23;20025;-88
2022/09/22 12:53:10;;;;;;;9.18;3.22;;;17.90;85.40;;;;;;6160575;23;20021;-88
2022/09/22 12:55:37;;;;;;;11.02;3.83;;;17.70;87.30;;;;;;6160166;23;20021;-88
2022/09/22 12:58:22;;;;;;;6.28;3.00;;;17.70;87.60;;;;;;6136382;23;20032;-88
2022/09/22 13:01:28;;;;;;;9.07;3.13;;;17.90;87.50;;;;;;6184970;23;20020;-88
2022/09/22 13:04:20;;;;;;;7.68;3.38;;;18.10;89.30;;;;;;6157031;23;20033;-88
2022/09/22 13:06:45;;;;;;;5.72;3.40;;;18.40;87.50;;;;;;6160863;23;20021;-88
2022/09/22 13:09:23;;;;;;;9.80;3.35;;;18.60;87.00;;;;;;6186083;23;20017;-88
2022/09/22 13:12:23;;;;;;;9.70;3.85;;;18.70;88.10;;;;;;6184681;23;20025;-88
2022/09/22 13:15:06;;;;;;;8.18;3.90;;;18.80;87.00;;;;;;6161498;23;20071;-87
2022/09/22 13:17:41;;;;;;;7.53;3.10;;;18.80;85.90;;;;;;6187806;23;20029;-87
2022/09/22 13:20:29;;;;;;;7.97;4.05;;;18.80;86.90;;;;;;6193211;23;20077;-88
2022/09/22 13:23:25;;;;;;;8.93;3.67;;;18.80;84.70;;;;;;6173615;23;20028;-87
2022/09/22 13:25:51;;;;;;;5.82;3.20;;;18.60;86.30;;;;;;6154927;23;20060;-87
2022/09/22 13:28:22;;;;;;;8.57;3.38;;;18.50;87.40;;;;;;6198102;23;20040;-87
2022/09/22 13:31:17;;;;;;;7.25;3.92;;;18.50;86.50;;;;;;6172655;23;20044;-87
2022/09/22 13:33:43;;;;;;;8.98;3.97;;;18.60;84.30;;;;;;6177345;23;20025;-87
2022/09/22 13:36:15;;;;;;;8.05;3.55;;;18.50;85.00;;;;;;6198626;23;20021;-88
2022/09/22 13:38:43;;;;;;;7.65;3.70;;;18.50;83.70;;;;;;6151149;23;20021;-89
2022/09/22 13:41:12;;;;;;;8.60;3.92;;;18.50;84.60;;;;;;6174575;23;20031;-89
2022/09/22 13:43:40;;;;;;;7.38;3.30;;;18.50;83.10;;;;;;6160220;23;20021;-88
2022/09/22 13:46:38;;;;;;;9.80;3.95;;;18.50;84.40;;;;;;6131426;23;20029;-88